Time;durP1;ratioP1;P1;durP2;ratioP2;P2;SDS_P1;SDS_P2;PMS_P1;PMS_P2;Temp;Humidity;BMP_temperature;BMP_pressure;BME280_temperature;BME280_humidity;BME280_pressure;Samples;Min_cycle;Max_cycle;Signal;HPM_P1;HPM_P2
2023/10/11 00:01:10;;;;;;;14.25;6.20;;;16.60;99.90;;;;;;4860154;29;20127;-90
2023/10/11 00:03:35;;;;;;;16.40;6.35;;;16.60;99.90;;;;;;4860670;29;20086;-89
2023/10/11 00:06:05;;;;;;;13.77;6.15;;;16.60;99.90;;;;;;4876367;29;20063;-90
2023/10/11 00:08:40;;;;;;;12.35;5.63;;;16.60;99.90;;;;;;4866126;29;20047;-90
2023/10/11 00:11:09;;;;;;;12.48;5.88;;;16.60;99.90;;;;;;4878301;29;20048;-89
2023/10/11 00:13:43;;;;;;;15.00;6.90;;;16.60;99.90;;;;;;4880146;29;20093;-91
2023/10/11 00:16:10;;;;;;;12.55;6.45;;;16.60;99.90;;;;;;4878052;29;20156;-90
2023/10/11 00:18:43;;;;;;;13.43;6.45;;;16.60;99.90;;;;;;4880380;29;20050;-89
2023/10/11 00:21:18;;;;;;;13.23;6.15;;;16.60;99.90;;;;;;4892990;29;20040;-91
2023/10/11 00:23:50;;;;;;;14.18;6.82;;;16.60;99.90;;;;;;4861898;29;20123;-90
2023/10/11 00:26:17;;;;;;;16.35;7.13;;;16.70;99.90;;;;;;4864040;29;20044;-91
2023/10/11 00:28:43;;;;;;;16.15;7.03;;;16.70;99.90;;;;;;4877497;29;20454;-91
2023/10/11 00:31:16;;;;;;;15.18;6.60;;;16.60;99.90;;;;;;4842448;29;20048;-90
2023/10/11 00:33:52;;;;;;;15.10;6.22;;;16.60;99.90;;;;;;4894615;29;20432;-91
2023/10/11 00:36:26;;;;;;;17.15;6.88;;;16.50;99.90;;;;;;4863281;29;20478;-90
2023/10/11 00:39:03;;;;;;;13.82;6.50;;;16.60;99.90;;;;;;4862465;29;20048;-91
2023/10/11 00:41:39;;;;;;;13.80;6.05;;;16.60;99.90;;;;;;4876274;29;20866;-91
2023/10/11 00:44:06;;;;;;;15.50;7.13;;;16.60;99.90;;;;;;4864609;29;20672;-90
2023/10/11 00:46:44;;;;;;;14.65;6.32;;;16.80;99.90;;;;;;4864686;29;20409;-90
2023/10/11 00:49:19;;;;;;;14.45;7.30;;;16.60;99.90;;;;;;4874007;29;20162;-91
2023/10/11 00:51:51;;;;;;;12.27;6.38;;;16.50;99.90;;;;;;4863526;29;20056;-90
2023/10/11 00:54:25;;;;;;;14.10;6.70;;;16.60;99.90;;;;;;4894259;29;20509;-90
2023/10/11 00:56:54;;;;;;;18.92;7.32;;;16.70;99.90;;;;;;4861821;29;20079;-91
2023/10/11 00:59:21;;;;;;;18.67;7.45;;;16.30;99.90;;;;;;4877920;29;20064;-90
2023/10/11 01:01:47;;;;;;;16.23;7.53;;;16.60;99.90;;;;;;4911785;29;20051;-91
2023/10/11 01:04:18;;;;;;;20.08;7.53;;;;;;;;;;4877184;29;20067;-91
2023/10/11 01:06:44;;;;;;;13.00;7.03;;;16.70;99.90;;;;;;4894930;29;20051;-91
2023/10/11 01:09:17;;;;;;;14.63;7.07;;;16.60;99.90;;;;;;4891094;29;20075;-91
2023/10/11 01:11:46;;;;;;;16.67;6.45;;;;;;;;;;4859292;29;20036;-90
2023/10/11 01:14:20;;;;;;;14.18;6.90;;;16.70;99.90;;;;;;4896467;29;20329;-89
2023/10/11 01:17:03;;;;;;;16.30;6.95;;;16.70;99.90;;;;;;4888503;29;20092;-91
2023/10/11 01:19:36;;;;;;;14.73;6.60;;;16.60;99.90;;;;;;4873109;29;20060;-90
2023/10/11 01:22:05;;;;;;;14.85;7.45;;;16.60;99.90;;;;;;4876720;29;20850;-90
2023/10/11 01:24:34;;;;;;;16.55;7.30;;;16.60;99.90;;;;;;4858039;29;20521;-90
2023/10/11 01:27:13;;;;;;;16.80;6.95;;;16.60;99.90;;;;;;4844722;29;20109;-90
2023/10/11 01:29:47;;;;;;;15.98;7.10;;;16.60;99.90;;;;;;4859968;29;20056;-91
2023/10/11 01:32:16;;;;;;;16.15;7.68;;;16.60;99.90;;;;;;4854541;29;20045;-91
2023/10/11 01:34:44;;;;;;;14.05;6.97;;;17.30;99.90;;;;;;4875492;29;20036;-91
2023/10/11 01:37:13;;;;;;;14.80;6.90;;;16.60;99.90;;;;;;4878347;29;20093;-91
2023/10/11 01:39:46;;;;;;;15.05;7.18;;;16.60;99.90;;;;;;4851703;29;20049;-91
2023/10/11 01:42:14;;;;;;;16.58;7.40;;;16.60;99.90;;;;;;4844235;29;20140;-91
2023/10/11 01:44:41;;;;;;;15.27;6.95;;;;;;;;;;4860950;29;20052;-90
2023/10/11 01:47:06;;;;;;;16.92;7.45;;;16.60;99.90;;;;;;4859416;29;20053;-92
2023/10/11 01:49:39;;;;;;;18.38;7.78;;;16.60;99.90;;;;;;4857272;29;20048;-90
2023/10/11 01:52:08;;;;;;;14.25;6.60;;;16.60;99.90;;;;;;4844486;29;20044;-91
2023/10/11 01:54:34;;;;;;;14.38;6.95;;;16.60;99.90;;;;;;4856083;29;20047;-89
2023/10/11 01:57:01;;;;;;;14.82;6.85;;;16.50;99.90;;;;;;4875559;29;20140;-91
2023/10/11 01:59:30;;;;;;;18.33;7.03;;;14.70;99.90;;;;;;4844838;29;20060;-91
2023/10/11 02:02:02;;;;;;;18.02;7.43;;;16.60;99.90;;;;;;4862496;29;20100;-90
2023/10/11 02:04:31;;;;;;;14.25;6.78;;;16.60;99.90;;;;;;4861545;29;20204;-91
2023/10/11 02:06:57;;;;;;;15.07;7.00;;;16.60;99.90;;;;;;4853046;29;20045;-91
2023/10/11 02:09:24;;;;;;;19.45;7.97;;;;;;;;;;4874097;29;20123;-91
2023/10/11 02:11:54;;;;;;;17.50;7.22;;;16.60;99.90;;;;;;4875789;29;20069;-89
2023/10/11 02:14:22;;;;;;;17.48;6.70;;;16.70;99.90;;;;;;4846179;29;20045;-91
2023/10/11 02:17:05;;;;;;;14.57;6.93;;;16.60;99.90;;;;;;4849514;29;20546;-91
2023/10/11 02:19:36;;;;;;;16.85;7.07;;;;;;;;;;4872662;29;20130;-90
2023/10/11 02:22:11;;;;;;;15.40;7.03;;;16.60;99.90;;;;;;4877657;29;20127;-90
2023/10/11 02:24:40;;;;;;;15.93;7.28;;;16.60;99.90;;;;;;4859549;29;20055;-92
2023/10/11 02:27:17;;;;;;;20.60;8.13;;;16.60;99.90;;;;;;4862130;29;20439;-90
2023/10/11 02:29:42;;;;;;;15.63;6.93;;;16.50;99.90;;;;;;4893115;29;20100;-92
2023/10/11 02:32:08;;;;;;;14.98;7.10;;;16.60;99.90;;;;;;4862530;29;20032;-91
2023/10/11 02:34:41;;;;;;;19.63;6.97;;;16.60;99.90;;;;;;4891520;29;20532;-91
2023/10/11 02:37:16;;;;;;;18.77;6.85;;;17.30;99.90;;;;;;4863776;29;20043;-90
2023/10/11 02:39:51;;;;;;;13.43;7.00;;;16.50;99.90;;;;;;4895291;29;20040;-91
2023/10/11 02:42:23;;;;;;;13.77;6.47;;;16.20;99.90;;;;;;4892447;29;20045;-91
2023/10/11 02:44:51;;;;;;;15.77;6.82;;;16.50;99.90;;;;;;4876080;29;20979;-90
2023/10/11 02:47:23;;;;;;;12.38;6.32;;;16.50;99.90;;;;;;4862970;29;20064;-91
2023/10/11 02:49:53;;;;;;;17.58;7.00;;;16.50;99.90;;;;;;4860738;29;20066;-90
2023/10/11 02:52:29;;;;;;;;;;;16.50;99.90;;;;;;4862042;29;20048;-90
2023/10/11 02:54:55;;;;;;;;;;;16.50;99.90;;;;;;4874034;29;19949;-90
2023/10/11 02:57:26;;;;;;;14.27;6.22;;;16.50;99.90;;;;;;4876536;29;19962;-90
2023/10/11 02:59:51;;;;;;;15.57;6.68;;;16.50;99.90;;;;;;4890130;29;20142;-90
2023/10/11 03:02:17;;;;;;;13.65;5.95;;;16.50;99.90;;;;;;4846306;29;20048;-90
2023/10/11 03:04:45;;;;;;;16.73;7.22;;;16.50;99.90;;;;;;4862421;29;20104;-92
2023/10/11 03:07:21;;;;;;;14.63;6.38;;;16.40;99.90;;;;;;4860462;29;20046;-90
2023/10/11 03:09:50;;;;;;;14.63;6.97;;;16.40;99.90;;;;;;4875205;29;20216;-91
2023/10/11 03:12:38;;;;;;;14.85;6.53;;;16.50;99.90;;;;;;4890534;29;20043;-91
2023/10/11 03:15:11;;;;;;;14.82;6.75;;;16.40;99.90;;;;;;4879186;29;20083;-90
2023/10/11 03:17:41;;;;;;;16.50;6.78;;;16.40;99.90;;;;;;4874535;29;20521;-91
2023/10/11 03:20:35;;;;;;;15.30;6.57;;;16.40;99.90;;;;;;4872842;29;20071;-90
2023/10/11 03:23:01;;;;;;;17.38;7.00;;;16.30;99.90;;;;;;4891704;29;20036;-90
2023/10/11 03:25:49;;;;;;;15.75;6.75;;;16.40;99.90;;;;;;4870879;29;22044;-90
2023/10/11 03:28:21;;;;;;;15.73;6.63;;;16.40;99.90;;;;;;4863234;29;20040;-90
2023/10/11 03:30:47;;;;;;;17.00;7.32;;;16.40;99.90;;;;;;4875561;29;20044;-91
2023/10/11 03:33:17;;;;;;;15.73;6.85;;;16.40;99.90;;;;;;4878531;29;20094;-91
2023/10/11 03:35:45;;;;;;;14.73;7.03;;;16.40;99.90;;;;;;4875135;29;20054;-91
2023/10/11 03:38:21;;;;;;;17.58;7.40;;;16.40;99.90;;;;;;4874906;29;20505;-90
2023/10/11 03:41:10;;;;;;;18.55;6.70;;;16.40;99.90;;;;;;4875015;29;20123;-91
2023/10/11 03:43:42;;;;;;;18.02;7.57;;;;;;;;;;4891756;29;20118;-90
2023/10/11 03:46:24;;;;;;;14.55;6.35;;;16.40;99.90;;;;;;4890842;29;20139;-90
2023/10/11 03:49:13;;;;;;;14.05;6.40;;;;;;;;;;4873999;29;20044;-91
2023/10/11 03:51:50;;;;;;;14.35;6.15;;;16.40;99.90;;;;;;4889712;29;21464;-91
2023/10/11 03:54:22;;;;;;;15.68;7.20;;;16.40;99.90;;;;;;4888222;29;20509;-91
2023/10/11 03:57:17;;;;;;;14.93;6.45;;;16.40;99.90;;;;;;4888173;29;20036;-89
2023/10/11 03:59:48;;;;;;;14.98;6.85;;;16.40;99.90;;;;;;4875432;29;20098;-90
2023/10/11 04:02:17;;;;;;;13.85;6.20;;;16.40;99.90;;;;;;4858821;29;20036;-91
2023/10/11 04:04:49;;;;;;;14.38;6.60;;;;;;;;;;4865646;29;20044;-89
2023/10/11 04:07:21;;;;;;;15.57;6.47;;;16.40;99.90;;;;;;4877089;29;20063;-90
2023/10/11 04:09:50;;;;;;;15.75;6.78;;;16.40;99.90;;;;;;4872783;29;20669;-92
2023/10/11 04:12:23;;;;;;;15.90;6.28;;;16.40;99.90;;;;;;4875022;29;20048;-90
2023/10/11 04:14:51;;;;;;;15.50;6.40;;;;;;;;;;4877038;29;20405;-91
2023/10/11 04:20:21;;;;;;;15.35;6.57;;;16.30;99.90;;;;;;4890022;29;20071;-90
2023/10/11 04:23:10;;;;;;;16.20;7.18;;;16.30;99.90;;;;;;4876310;29;20050;-90
2023/10/11 04:25:37;;;;;;;13.95;5.88;;;16.30;99.90;;;;;;4862480;29;20052;-91
2023/10/11 04:28:12;;;;;;;16.63;6.85;;;16.30;99.90;;;;;;4878688;29;20063;-92
2023/10/11 04:30:44;;;;;;;14.32;6.75;;;17.20;99.90;;;;;;4858740;29;20083;-91
2023/10/11 04:33:22;;;;;;;17.77;6.97;;;16.30;99.90;;;;;;4889893;29;20557;-89
2023/10/11 04:35:57;;;;;;;14.10;6.28;;;16.40;99.90;;;;;;4875129;29;20116;-90
2023/10/11 04:38:24;;;;;;;12.50;5.93;;;16.30;99.90;;;;;;4874959;29;20156;-91
2023/10/11 04:40:52;;;;;;;19.60;7.15;;;15.60;99.90;;;;;;4869885;29;20051;-90
2023/10/11 04:43:26;;;;;;;16.15;6.15;;;16.30;99.90;;;;;;4873848;29;20069;-90
2023/10/11 04:45:59;;;;;;;15.70;6.45;;;16.30;99.90;;;;;;4860674;29;20091;-91
2023/10/11 04:48:33;;;;;;;17.48;6.55;;;16.40;99.90;;;;;;4893881;29;20044;-88
2023/10/11 04:53:57;;;;;;;12.93;5.72;;;16.30;99.90;;;;;;4888913;29;20083;-90
2023/10/11 04:59:13;;;;;;;18.38;6.63;;;16.30;99.90;;;;;;4894631;29;20494;-90
2023/10/11 05:04:32;;;;;;;14.00;6.00;;;16.30;99.90;;;;;;4883168;29;20048;-92
2023/10/11 05:07:07;;;;;;;14.13;6.53;;;16.20;99.90;;;;;;4863654;29;20123;-89
2023/10/11 05:09:41;;;;;;;16.10;6.70;;;16.20;99.90;;;;;;4878147;29;20032;-91
2023/10/11 05:12:22;;;;;;;14.60;6.13;;;16.20;99.90;;;;;;4881027;29;20039;-90
2023/10/11 05:15:07;;;;;;;13.95;5.90;;;16.10;99.90;;;;;;4885230;29;20040;-91
2023/10/11 05:17:39;;;;;;;14.48;6.53;;;16.00;99.90;;;;;;4864402;29;20060;-89
2023/10/11 05:28:07;;;;;;;17.00;6.22;;;16.20;99.90;;;;;;4896910;29;20048;-90
2023/10/11 05:30:34;;;;;;;16.33;6.55;;;16.20;99.90;;;;;;4847821;29;20411;-91
2023/10/11 05:52:15;;;;;;;13.80;6.40;;;16.20;99.90;;;;;;4866706;29;20136;-90
2023/10/11 05:54:41;;;;;;;16.63;6.53;;;16.20;99.90;;;;;;4863790;29;20486;-90
2023/10/11 05:57:07;;;;;;;17.83;7.50;;;16.20;99.90;;;;;;4864265;29;20040;-89
2023/10/11 05:59:37;;;;;;;15.10;6.72;;;16.20;99.90;;;;;;4847203;29;20059;-90
2023/10/11 06:02:18;;;;;;;14.77;6.65;;;16.20;99.90;;;;;;4877896;29;20125;-89
2023/10/11 06:04:45;;;;;;;14.93;6.45;;;16.20;99.90;;;;;;4858448;29;20064;-90
2023/10/11 06:07:16;;;;;;;15.05;6.72;;;16.30;99.90;;;;;;4862663;29;20529;-89
2023/10/11 06:09:58;;;;;;;14.15;6.38;;;16.30;99.90;;;;;;4859156;29;20206;-90
2023/10/11 06:12:26;;;;;;;18.00;7.13;;;16.30;99.90;;;;;;4861422;29;20119;-90
2023/10/11 06:14:56;;;;;;;17.70;6.78;;;16.30;99.90;;;;;;4861890;29;20309;-91
2023/10/11 06:17:41;;;;;;;16.83;6.35;;;16.30;99.90;;;;;;4860121;29;20521;-90
2023/10/11 06:20:23;;;;;;;16.80;6.45;;;16.40;99.90;;;;;;4868191;29;20397;-90
2023/10/11 06:22:50;;;;;;;14.43;6.55;;;16.40;99.90;;;;;;4876651;29;20477;-91
2023/10/11 06:28:13;;;;;;;16.95;6.75;;;16.40;99.90;;;;;;4879302;29;20589;-90
2023/10/11 06:30:51;;;;;;;17.30;7.03;;;16.50;99.90;;;;;;4850008;29;20573;-90
2023/10/11 06:33:26;;;;;;;14.85;6.80;;;16.50;99.90;;;;;;4887383;29;20490;-89
2023/10/11 06:35:53;;;;;;;16.27;6.75;;;16.50;99.90;;;;;;4854448;29;20053;-90
2023/10/11 06:38:21;;;;;;;17.63;7.75;;;16.50;99.90;;;;;;4862914;29;20086;-90
2023/10/11 06:40:54;;;;;;;15.25;6.80;;;16.60;99.90;;;;;;4862684;29;20040;-90
2023/10/11 06:43:20;;;;;;;15.98;6.55;;;16.60;99.90;;;;;;4854423;29;20068;-90
2023/10/11 06:45:51;;;;;;;13.77;6.05;;;16.50;99.90;;;;;;4858294;29;20052;-89
2023/10/11 06:48:17;;;;;;;16.15;6.68;;;16.60;99.90;;;;;;4846344;29;20455;-88
2023/10/11 06:50:43;;;;;;;17.20;6.85;;;16.60;99.90;;;;;;4861501;29;20047;-91
2023/10/11 06:53:13;;;;;;;13.73;6.38;;;16.60;99.90;;;;;;4860138;29;20040;-90
2023/10/11 06:55:40;;;;;;;15.55;6.57;;;16.60;99.90;;;;;;4873394;29;20089;-89
2023/10/11 06:58:20;;;;;;;18.05;7.00;;;16.60;99.90;;;;;;4860751;29;20092;-89
2023/10/11 07:00:48;;;;;;;13.68;6.25;;;16.60;99.90;;;;;;4854257;29;20045;-90
2023/10/11 07:06:10;;;;;;;13.88;6.28;;;16.60;99.90;;;;;;4865896;29;20072;-91
2023/10/11 07:08:36;;;;;;;13.48;6.13;;;16.60;99.90;;;;;;4848346;29;20041;-90
2023/10/11 07:11:16;;;;;;;15.10;6.75;;;;;;;;;;4877356;29;20040;-90
2023/10/11 07:14:00;;;;;;;14.75;5.95;;;16.70;99.90;;;;;;4852655;29;20047;-90
2023/10/11 07:16:28;;;;;;;15.38;6.55;;;16.70;99.90;;;;;;4861725;29;20060;-90
2023/10/11 07:19:06;;;;;;;12.18;5.82;;;16.70;99.90;;;;;;4877086;29;20129;-90
2023/10/11 07:24:31;;;;;;;13.23;5.70;;;16.80;99.90;;;;;;4908545;29;20055;-89
2023/10/11 07:27:02;;;;;;;14.50;6.22;;;16.80;99.90;;;;;;4900053;29;20127;-90
2023/10/11 07:29:36;;;;;;;16.60;6.68;;;16.80;99.90;;;;;;4865304;29;20613;-87
2023/10/11 07:32:09;;;;;;;14.95;6.65;;;16.80;99.90;;;;;;4877188;29;20044;-90
2023/10/11 07:34:37;;;;;;;17.02;6.50;;;16.90;99.90;;;;;;4865734;29;20513;-89
2023/10/11 07:37:05;;;;;;;15.80;6.32;;;16.90;99.90;;;;;;4871560;29;20045;-91
2023/10/11 07:39:35;;;;;;;14.93;6.32;;;16.80;99.90;;;;;;4874033;29;20040;-89
2023/10/11 07:42:18;;;;;;;15.02;6.65;;;17.00;99.90;;;;;;4855500;29;20075;-90
2023/10/11 07:44:50;;;;;;;;;;;17.00;99.90;;;;;;4886206;29;20409;-89
2023/10/11 07:47:16;;;;;;;14.30;5.95;;;17.00;99.90;;;;;;4881887;29;19931;-91
2023/10/11 07:49:49;;;;;;;14.48;6.28;;;17.00;99.90;;;;;;4896102;29;20036;-90
2023/10/11 07:52:19;;;;;;;14.45;6.10;;;17.00;99.90;;;;;;4895397;29;20593;-90
2023/10/11 07:54:45;;;;;;;14.10;6.00;;;17.00;99.90;;;;;;4878478;29;20067;-89
2023/10/11 07:57:14;;;;;;;14.82;6.65;;;17.10;99.90;;;;;;4861132;29;20048;-91
2023/10/11 07:59:45;;;;;;;15.40;6.70;;;17.10;99.90;;;;;;4870977;29;20048;-90
2023/10/11 08:02:31;;;;;;;13.90;6.53;;;17.10;99.90;;;;;;4859151;29;20050;-91
2023/10/11 08:04:59;;;;;;;15.25;5.93;;;17.20;99.90;;;;;;4864344;29;20055;-89
2023/10/11 08:07:26;;;;;;;14.77;6.10;;;18.00;99.90;;;;;;4842838;29;20139;-91
2023/10/11 08:09:57;;;;;;;16.15;6.88;;;17.20;99.90;;;;;;4874566;29;20537;-90
2023/10/11 08:12:27;;;;;;;15.45;6.68;;;17.20;99.90;;;;;;4891176;29;20045;-90
2023/10/11 08:14:53;;;;;;;13.38;6.35;;;17.20;99.90;;;;;;4885218;29;20362;-91
2023/10/11 08:17:29;;;;;;;15.48;6.53;;;17.10;99.90;;;;;;4890867;29;20055;-90
2023/10/11 08:20:01;;;;;;;13.48;6.45;;;17.10;99.90;;;;;;4876096;29;20048;-89
2023/10/11 08:22:32;;;;;;;14.35;6.55;;;17.20;99.90;;;;;;4909387;29;20043;-90
2023/10/11 08:25:01;;;;;;;14.70;6.60;;;17.10;99.90;;;;;;4880619;29;20502;-88
2023/10/11 08:27:29;;;;;;;13.68;6.45;;;17.50;99.90;;;;;;4896501;29;20078;-90
2023/10/11 08:30:09;;;;;;;14.85;6.28;;;17.10;99.90;;;;;;4901626;29;20077;-88
2023/10/11 08:32:42;;;;;;;12.77;5.80;;;17.10;99.90;;;;;;4879402;29;20051;-90
2023/10/11 08:35:10;;;;;;;15.20;6.43;;;17.10;99.90;;;;;;4876176;29;20072;-90
2023/10/11 08:37:37;;;;;;;18.10;7.20;;;17.10;99.90;;;;;;4882015;29;20082;-90
2023/10/11 08:40:29;;;;;;;17.10;6.57;;;17.10;99.90;;;;;;4865654;29;20055;-89
2023/10/11 08:43:00;;;;;;;14.73;6.15;;;17.10;99.90;;;;;;4868474;29;20502;-90
2023/10/11 08:46:00;;;;;;;15.45;6.50;;;17.10;99.90;;;;;;4866688;29;20214;-89
2023/10/11 08:48:29;;;;;;;;;;;17.10;99.90;;;;;;4880487;29;20058;-91
2023/10/11 08:50:58;;;;;;;12.48;5.97;;;17.10;99.90;;;;;;4887627;29;19919;-88
2023/10/11 08:53:24;;;;;;;14.35;5.93;;;17.00;99.90;;;;;;4892294;29;20075;-89
2023/10/11 08:56:05;;;;;;;13.68;5.95;;;17.00;99.90;;;;;;4867042;29;20063;-89
2023/10/11 08:58:38;;;;;;;13.57;5.68;;;17.00;99.90;;;;;;4889168;29;20067;-90
2023/10/11 09:01:09;;;;;;;12.25;5.65;;;;;;;;;;4887898;29;20039;-90
2023/10/11 09:03:41;;;;;;;13.88;5.38;;;17.10;99.90;;;;;;4893905;29;20044;-89
2023/10/11 09:06:35;;;;;;;12.48;4.95;;;17.10;99.90;;;;;;4918838;29;20074;-90
2023/10/11 09:09:03;;;;;;;13.35;5.25;;;17.10;99.90;;;;;;4916004;29;20108;-90
2023/10/11 09:11:28;;;;;;;12.13;5.18;;;17.10;99.90;;;;;;4898950;29;20603;-89
2023/10/11 09:14:13;;;;;;;15.98;5.53;;;17.20;99.90;;;;;;4884364;29;20059;-91
2023/10/11 09:16:43;;;;;;;11.95;5.18;;;17.20;99.90;;;;;;4896316;29;20051;-90
2023/10/11 09:19:12;;;;;;;10.77;4.55;;;17.20;99.90;;;;;;4903246;29;20135;-89
2023/10/11 09:21:38;;;;;;;10.57;4.40;;;17.20;99.90;;;;;;4878780;29;20079;-90
2023/10/11 09:24:28;;;;;;;11.95;4.90;;;17.30;99.90;;;;;;4877574;29;20089;-90
2023/10/11 09:29:38;;;;;;;9.77;4.53;;;17.30;99.90;;;;;;4905861;29;20203;-90
2023/10/11 09:32:13;;;;;;;9.57;3.92;;;17.30;99.90;;;;;;4871891;29;20077;-92
2023/10/11 09:34:56;;;;;;;10.93;4.32;;;17.50;99.90;;;;;;4868112;29;20854;-91
2023/10/11 09:37:22;;;;;;;11.23;4.38;;;17.40;99.90;;;;;;4898467;29;20128;-90
2023/10/11 09:39:51;;;;;;;10.38;4.45;;;17.40;99.90;;;;;;4865132;29;20048;-89
2023/10/11 09:42:17;;;;;;;9.48;4.45;;;17.40;99.90;;;;;;4896771;29;20048;-91
2023/10/11 09:44:46;;;;;;;10.18;4.57;;;17.50;99.90;;;;;;4883811;29;20040;-92
2023/10/11 09:47:26;;;;;;;13.02;4.95;;;17.60;99.90;;;;;;4869833;29;20095;-91
2023/10/11 09:50:02;;;;;;;10.63;4.22;;;17.70;99.90;;;;;;4865570;29;20048;-91
2023/10/11 09:52:29;;;;;;;11.77;4.07;;;17.70;99.90;;;;;;4890420;29;20111;-90
2023/10/11 09:54:57;;;;;;;9.95;4.03;;;17.70;99.90;;;;;;4881209;29;20044;-89
2023/10/11 09:57:41;;;;;;;11.32;4.25;;;17.80;99.90;;;;;;4883209;29;20044;-89
2023/10/11 10:00:17;;;;;;;10.10;4.20;;;17.80;99.90;;;;;;4900318;29;20044;-89
2023/10/11 10:02:50;;;;;;;9.00;3.95;;;17.80;99.90;;;;;;4877586;29;20418;-88
2023/10/11 10:05:17;;;;;;;9.80;4.22;;;17.80;99.90;;;;;;4908981;29;20051;-88
2023/10/11 10:07:54;;;;;;;8.70;3.60;;;17.80;99.90;;;;;;4881381;29;20071;-90
2023/10/11 10:10:28;;;;;;;8.73;3.63;;;17.80;99.90;;;;;;4903725;29;20122;-90
2023/10/11 10:13:09;;;;;;;8.30;3.55;;;17.80;99.90;;;;;;4901602;29;20036;-91
2023/10/11 10:15:52;;;;;;;11.60;3.78;;;17.90;99.90;;;;;;4902702;29;20115;-91
2023/10/11 10:18:25;;;;;;;11.85;4.00;;;18.00;99.90;;;;;;4886934;29;20045;-89
2023/10/11 10:21:02;;;;;;;10.82;3.80;;;18.10;99.90;;;;;;4883338;29;20048;-89
2023/10/11 10:23:37;;;;;;;12.02;4.40;;;18.20;99.90;;;;;;4870380;29;20040;-90
2023/10/11 10:26:07;;;;;;;8.10;3.55;;;;;;;;;;4870153;29;20036;-92
2023/10/11 10:28:35;;;;;;;10.18;3.72;;;18.30;99.90;;;;;;4922466;29;20449;-90
2023/10/11 10:31:11;;;;;;;9.65;4.00;;;18.30;99.90;;;;;;4882442;29;20472;-90
2023/10/11 10:34:16;;;;;;;12.00;3.75;;;18.30;99.90;;;;;;4898271;29;20247;-90
2023/10/11 10:36:48;;;;;;;9.77;3.53;;;18.60;99.90;;;;;;4897929;29;20183;-89
2023/10/11 10:41:40;;;;;;;10.98;3.88;;;18.40;99.90;;;;;;4903848;29;20044;-88
2023/10/11 10:44:20;;;;;;;9.43;3.90;;;18.40;99.90;;;;;;4881255;29;20048;-89
2023/10/11 10:46:55;;;;;;;10.15;3.33;;;18.50;99.90;;;;;;4867225;29;20050;-89
2023/10/11 10:49:42;;;;;;;8.20;3.13;;;18.50;99.90;;;;;;4903173;29;20072;-90
2023/10/11 10:52:18;;;;;;;8.48;3.08;;;18.50;99.90;;;;;;4869406;29;20087;-89
2023/10/11 10:55:01;;;;;;;9.23;3.30;;;18.70;99.90;;;;;;4881018;29;20044;-89
2023/10/11 10:57:31;;;;;;;8.75;3.40;;;18.80;99.90;;;;;;4888660;29;20044;-88
2023/10/11 11:00:23;;;;;;;8.73;3.22;;;18.90;99.90;;;;;;4905733;29;20417;-91
2023/10/11 11:02:49;;;;;;;8.40;3.03;;;19.70;99.90;;;;;;4885098;29;20107;-90
2023/10/11 11:05:18;;;;;;;7.53;2.88;;;19.20;99.90;;;;;;4916216;29;20086;-90
2023/10/11 11:08:00;;;;;;;9.50;3.25;;;20.50;99.90;;;;;;4891520;29;20036;-90
2023/10/11 11:10:30;;;;;;;8.88;3.13;;;19.40;99.90;;;;;;4896270;29;20614;-89
2023/10/11 11:13:03;;;;;;;8.38;3.35;;;19.40;99.90;;;;;;4882168;29;20091;-89
2023/10/11 11:15:36;;;;;;;8.82;3.17;;;19.40;99.90;;;;;;4897294;29;20498;-90
2023/10/11 11:18:02;;;;;;;7.57;2.65;;;19.30;99.90;;;;;;4881311;29;20462;-89
2023/10/11 11:20:32;;;;;;;8.45;2.88;;;19.40;99.90;;;;;;4905897;29;20044;-90
2023/10/11 11:23:04;;;;;;;;;;;19.30;99.90;;;;;;4864461;29;20080;-91
2023/10/11 11:25:34;;;;;;;7.00;2.50;;;19.70;99.90;;;;;;4877548;29;19925;-89
2023/10/11 11:28:16;;;;;;;7.28;2.53;;;18.70;99.90;;;;;;4865060;29;20135;-89
2023/10/11 11:36:40;;;;;;;7.50;2.60;;;19.10;99.90;;;;;;4912793;29;20150;-90
2023/10/11 11:39:36;;;;;;;;;;;19.10;99.90;;;;;;4869806;29;20040;-89
2023/10/11 11:42:09;;;;;;;9.77;2.80;;;18.20;99.90;;;;;;4872943;29;19926;-91
2023/10/11 11:44:39;;;;;;;7.43;2.60;;;19.00;99.90;;;;;;4891007;29;20568;-90
2023/10/11 11:47:29;;;;;;;9.23;2.92;;;18.90;99.90;;;;;;4857752;29;20303;-90
2023/10/11 11:49:59;;;;;;;8.35;2.70;;;18.90;99.90;;;;;;4863499;29;20575;-91
2023/10/11 11:52:37;;;;;;;8.45;2.60;;;18.90;99.90;;;;;;4876378;29;20036;-89
2023/10/11 11:55:03;;;;;;;7.43;2.53;;;18.90;99.90;;;;;;4879099;29;20032;-90
2023/10/11 11:57:29;;;;;;;7.38;2.35;;;19.00;99.90;;;;;;4863946;29;20120;-89
2023/10/11 11:59:58;;;;;;;7.50;2.30;;;19.00;99.90;;;;;;4875425;29;20127;-90
2023/10/11 12:02:26;;;;;;;7.40;2.58;;;19.10;99.90;;;;;;4900844;29;20178;-89
2023/10/11 12:04:57;;;;;;;7.45;2.60;;;19.20;99.90;;;;;;4907381;29;20048;-90
2023/10/11 12:07:30;;;;;;;7.25;2.30;;;19.10;99.90;;;;;;4883123;29;20044;-89
2023/10/11 12:09:57;;;;;;;6.75;2.60;;;;;;;;;;4868079;29;20050;-88
2023/10/11 12:12:28;;;;;;;8.10;2.42;;;19.40;99.90;;;;;;4889193;29;20182;-90
2023/10/11 12:14:59;;;;;;;9.00;2.83;;;19.40;99.90;;;;;;4902466;29;20093;-88
2023/10/11 12:17:31;;;;;;;6.72;2.40;;;19.60;99.90;;;;;;4871925;29;20335;-90
2023/10/11 12:20:21;;;;;;;8.35;2.55;;;19.70;99.90;;;;;;4871026;29;20498;-90
2023/10/11 12:22:50;;;;;;;5.75;2.00;;;19.70;99.90;;;;;;4848759;29;20439;-87
2023/10/11 12:25:24;;;;;;;6.80;2.20;;;19.70;99.90;;;;;;4881769;29;20044;-90
2023/10/11 12:27:56;;;;;;;6.30;2.25;;;19.80;99.90;;;;;;4848332;29;20550;-87
2023/10/11 12:30:22;;;;;;;7.43;2.20;;;19.70;99.90;;;;;;4849691;29;20052;-90
2023/10/11 12:33:10;;;;;;;9.80;2.88;;;19.60;99.90;;;;;;4866142;29;20045;-91
2023/10/11 12:35:39;;;;;;;8.52;2.45;;;20.20;99.90;;;;;;4865455;29;20060;-90
2023/10/11 12:38:12;;;;;;;9.02;2.88;;;19.50;99.90;;;;;;4880607;29;20041;-91
2023/10/11 12:40:40;;;;;;;8.05;2.65;;;19.40;99.90;;;;;;4847854;29;20543;-91
2023/10/11 12:43:09;;;;;;;6.63;2.45;;;19.30;99.90;;;;;;4876427;29;20646;-89
2023/10/11 12:45:42;;;;;;;9.82;2.50;;;19.30;99.90;;;;;;4858449;29;20521;-89
2023/10/11 12:48:12;;;;;;;7.15;2.42;;;19.20;99.90;;;;;;4860156;29;20394;-90
2023/10/11 12:50:46;;;;;;;7.63;2.42;;;19.20;99.90;;;;;;4872617;29;20120;-89
2023/10/11 12:53:15;;;;;;;7.63;2.08;;;19.20;99.90;;;;;;4884476;29;20047;-90
2023/10/11 12:55:50;;;;;;;7.63;2.28;;;19.10;99.90;;;;;;4880772;29;20455;-90
2023/10/11 12:58:18;;;;;;;8.40;2.53;;;19.20;99.90;;;;;;4864256;29;20040;-89
2023/10/11 13:00:49;;;;;;;8.13;2.33;;;19.20;99.90;;;;;;4865548;29;20421;-91
2023/10/11 13:04:05;;;;;;;7.47;2.10;;;19.20;99.90;;;;;;4863203;29;20052;-90
2023/10/11 13:06:22;;;;;;;6.90;2.33;;;19.30;99.90;;;;;;4873523;29;20108;-88
2023/10/11 13:08:48;;;;;;;7.15;2.20;;;19.40;99.90;;;;;;4863738;29;20401;-90
2023/10/11 13:11:31;;;;;;;7.57;2.42;;;19.30;99.90;;;;;;4860937;29;20041;-89
2023/10/11 13:14:07;;;;;;;7.53;2.67;;;19.10;99.90;;;;;;4873044;29;20099;-90
2023/10/11 13:16:33;;;;;;;8.18;2.45;;;19.30;99.90;;;;;;4856723;29;20041;-89
2023/10/11 13:19:17;;;;;;;8.25;2.72;;;;;;;;;;4875715;29;20112;-90
2023/10/11 13:21:54;;;;;;;8.60;2.65;;;19.80;99.90;;;;;;4884712;29;20228;-90
2023/10/11 13:24:25;;;;;;;9.13;2.40;;;20.00;99.90;;;;;;4898256;29;20050;-90
2023/10/11 13:26:57;;;;;;;6.45;2.38;;;20.10;99.90;;;;;;4892625;29;20048;-89
2023/10/11 13:29:39;;;;;;;7.40;2.45;;;20.70;99.90;;;;;;4865770;29;20561;-89
2023/10/11 13:32:05;;;;;;;5.90;1.92;;;20.10;99.90;;;;;;4867137;29;20079;-89
2023/10/11 13:34:33;;;;;;;7.38;2.40;;;20.00;99.90;;;;;;4864879;29;20063;-88
2023/10/11 13:37:00;;;;;;;6.82;2.15;;;19.90;99.90;;;;;;4879724;29;20044;-90
2023/10/11 13:39:38;;;;;;;7.38;2.58;;;19.80;99.90;;;;;;4894264;29;20115;-90
2023/10/11 13:42:14;;;;;;;7.03;2.38;;;19.70;99.90;;;;;;4890801;29;20493;-90
2023/10/11 13:44:43;;;;;;;6.93;2.30;;;19.50;99.90;;;;;;4907118;29;20313;-89
2023/10/11 13:47:14;;;;;;;6.43;2.30;;;19.30;99.90;;;;;;4883715;29;20051;-90
2023/10/11 13:50:01;;;;;;;7.75;2.22;;;19.20;99.90;;;;;;4882607;29;20080;-91
2023/10/11 13:52:27;;;;;;;7.03;2.30;;;19.10;99.90;;;;;;4875415;29;20065;-89
2023/10/11 13:55:11;;;;;;;7.90;2.75;;;18.90;99.90;;;;;;4887858;29;20124;-89
2023/10/11 13:57:52;;;;;;;8.98;2.75;;;18.90;99.90;;;;;;4901679;29;20067;-89
2023/10/11 14:05:45;;;;;;;8.32;2.60;;;18.90;99.90;;;;;;4882869;29;20056;-89
2023/10/11 14:08:30;;;;;;;8.57;2.65;;;18.90;99.90;;;;;;4897867;29;20044;-90
2023/10/11 14:11:02;;;;;;;8.98;2.47;;;18.40;99.90;;;;;;4882879;29;20723;-89
2023/10/11 14:13:31;;;;;;;8.02;2.90;;;18.90;99.90;;;;;;4892205;29;20520;-89
2023/10/11 14:16:06;;;;;;;8.10;2.78;;;18.80;99.90;;;;;;4865909;29;20105;-89
2023/10/11 14:18:38;;;;;;;8.70;2.72;;;18.70;99.90;;;;;;4872328;29;20048;-90